createdAt,value
2022-10-31T00:00:34.931Z,15.04
2022-10-31T00:01:34.353Z,15.03
2022-10-31T00:02:34.722Z,14.96
2022-10-31T00:03:38.316Z,14.96
2022-10-31T00:04:35.230Z,14.88
2022-10-31T00:05:38.046Z,14.88
2022-10-31T00:06:35.823Z,14.91
2022-10-31T00:07:36.121Z,14.88
2022-10-31T00:08:38.284Z,14.88
2022-10-31T00:09:37.987Z,14.86
2022-10-31T00:10:39.630Z,14.81
2022-10-31T00:11:38.876Z,14.82
2022-10-31T00:12:39.046Z,14.82
2022-10-31T00:13:39.724Z,14.78
2022-10-31T00:14:39.905Z,14.91
2022-10-31T00:15:39.908Z,14.91
2022-10-31T00:16:40.652Z,14.91
2022-10-31T00:17:40.797Z,14.97
2022-10-31T00:18:40.996Z,14.97
2022-10-31T00:19:41.178Z,15.00
2022-10-31T00:20:42.354Z,15.04
2022-10-31T00:21:42.078Z,15.00
2022-10-31T00:22:40.459Z,15.02
2022-10-31T00:23:42.659Z,15.06
2022-10-31T00:24:42.827Z,15.10
2022-10-31T00:25:44.001Z,15.09
2022-10-31T00:26:43.231Z,15.10
2022-10-31T00:27:41.992Z,15.10
2022-10-31T00:28:42.284Z,15.10
2022-10-31T00:29:42.587Z,15.04
2022-10-31T00:30:43.896Z,15.06
2022-10-31T00:31:43.145Z,15.10
2022-10-31T00:32:45.332Z,15.10
2022-10-31T00:33:43.778Z,15.17
2022-10-31T00:34:44.093Z,15.18
2022-10-31T00:35:45.346Z,15.22
2022-10-31T00:36:46.601Z,15.21
2022-10-31T00:37:44.988Z,15.22
2022-10-31T00:38:45.304Z,15.25
2022-10-31T00:39:47.663Z,15.27
2022-10-31T00:40:46.933Z,15.27
2022-10-31T00:41:46.180Z,15.25
2022-10-31T00:42:49.321Z,15.19
2022-10-31T00:43:46.842Z,15.11
2022-10-31T00:44:47.155Z,15.09
2022-10-31T00:45:48.937Z,15.11
2022-10-31T00:46:49.674Z,15.18
2022-10-31T00:47:48.987Z,15.09
2022-10-31T00:48:48.363Z,15.11
2022-10-31T00:49:48.665Z,15.14
2022-10-31T00:50:51.847Z,15.14
2022-10-31T00:51:51.075Z,15.21
2022-10-31T00:52:49.582Z,15.29
2022-10-31T00:53:49.889Z,15.31
2022-10-31T00:54:50.195Z,15.36
2022-10-31T00:55:51.478Z,15.36
2022-10-31T00:56:52.716Z,15.37
2022-10-31T00:57:51.097Z,15.40
2022-10-31T00:58:51.414Z,15.36
2022-10-31T00:59:51.733Z,15.33
2022-10-31T01:00:53.046Z,15.40
2022-10-31T01:01:54.295Z,15.36
2022-10-31T01:02:52.763Z,15.39
2022-10-31T01:03:52.903Z,15.29
2022-10-31T01:04:53.266Z,15.29
2022-10-31T01:05:54.500Z,15.29
2022-10-31T01:06:55.704Z,15.33
2022-10-31T01:07:54.091Z,15.36
2022-10-31T01:08:54.399Z,15.33
2022-10-31T01:09:54.705Z,15.31
2022-10-31T01:10:55.039Z,15.35
2022-10-31T01:11:57.217Z,15.33
2022-10-31T01:12:55.609Z,15.40
2022-10-31T01:13:55.895Z,15.49
2022-10-31T01:14:56.219Z,15.47
2022-10-31T01:15:57.571Z,15.57
2022-10-31T01:16:58.790Z,15.52
2022-10-31T01:17:59.110Z,15.55
2022-10-31T01:18:59.151Z,15.51
2022-10-31T01:19:59.338Z,15.49
2022-10-31T01:21:01.529Z,15.49
2022-10-31T01:22:00.211Z,15.46
2022-10-31T01:23:00.409Z,15.43
2022-10-31T01:24:00.588Z,15.52
2022-10-31T01:25:01.261Z,15.54
2022-10-31T01:26:02.905Z,15.52
2022-10-31T01:27:01.632Z,15.52
2022-10-31T01:28:00.684Z,15.62
2022-10-31T01:29:00.567Z,15.72
2022-10-31T01:30:00.894Z,15.77
2022-10-31T01:31:04.563Z,15.75
2022-10-31T01:32:01.482Z,15.72
2022-10-31T01:33:03.676Z,15.72
2022-10-31T01:34:02.041Z,15.65
2022-10-31T01:35:02.363Z,15.75
2022-10-31T01:36:04.702Z,15.64
2022-10-31T01:37:02.982Z,15.64
2022-10-31T01:38:03.276Z,15.59
2022-10-31T01:39:05.465Z,15.52
2022-10-31T01:40:03.874Z,15.57
2022-10-31T01:41:07.553Z,15.52
2022-10-31T01:42:04.463Z,15.52
2022-10-31T01:43:04.776Z,15.58
2022-10-31T01:44:05.079Z,15.51
2022-10-31T01:45:07.246Z,15.46
2022-10-31T01:46:08.381Z,15.44
2022-10-31T01:47:07.594Z,15.40
2022-10-31T01:48:07.753Z,15.46
2022-10-31T01:49:08.433Z,15.44
2022-10-31T01:50:08.608Z,15.43
2022-10-31T01:51:07.156Z,15.43
2022-10-31T01:52:09.356Z,15.42
2022-10-31T01:53:09.540Z,15.39
2022-10-31T01:54:09.739Z,15.37
2022-10-31T01:55:09.919Z,15.36
2022-10-31T01:56:10.604Z,15.27
2022-10-31T01:57:10.785Z,15.28
2022-10-31T01:58:11.051Z,15.36
2022-10-31T01:59:11.147Z,15.31
2022-10-31T02:00:11.337Z,15.29
2022-10-31T02:01:12.073Z,15.27
2022-10-31T02:02:12.324Z,15.25
2022-10-31T02:03:12.391Z,15.35
2022-10-31T02:04:12.566Z,15.28
2022-10-31T02:05:11.328Z,15.27
2022-10-31T02:06:11.635Z,15.31
2022-10-31T02:07:11.938Z,15.29
2022-10-31T02:08:14.141Z,15.25
2022-10-31T02:09:14.335Z,15.27
2022-10-31T02:10:12.824Z,15.35
2022-10-31T02:11:14.138Z,15.21
2022-10-31T02:12:13.393Z,15.18
2022-10-31T02:13:15.632Z,15.22
2022-10-31T02:14:13.997Z,15.18
2022-10-31T02:15:14.356Z,15.28
2022-10-31T02:16:16.489Z,15.15
2022-10-31T02:17:14.876Z,15.18
2022-10-31T02:18:18.510Z,15.14
2022-10-31T02:19:15.454Z,15.17
2022-10-31T02:20:17.660Z,15.15
2022-10-31T02:21:16.052Z,15.18
2022-10-31T02:22:18.219Z,15.10
2022-10-31T02:23:16.600Z,15.15
2022-10-31T02:24:18.789Z,15.15
2022-10-31T02:25:18.131Z,15.14
2022-10-31T02:26:19.337Z,15.10
2022-10-31T02:27:17.732Z,15.19
2022-10-31T02:29:20.233Z,15.10
2022-10-31T02:30:19.461Z,15.10
2022-10-31T02:31:20.804Z,15.14
2022-10-31T02:32:19.202Z,15.19
2022-10-31T02:33:19.522Z,15.19
2022-10-31T02:34:21.713Z,15.18
2022-10-31T02:35:21.027Z,15.21
2022-10-31T02:36:22.286Z,15.25
2022-10-31T02:37:20.662Z,15.21
2022-10-31T02:38:20.989Z,15.14
2022-10-31T02:39:21.297Z,15.06
2022-10-31T02:40:23.622Z,15.11
2022-10-31T02:41:22.768Z,15.10
2022-10-31T02:42:22.915Z,15.03
2022-10-31T02:43:23.376Z,14.92
2022-10-31T02:44:23.680Z,14.97
2022-10-31T02:45:26.402Z,14.96
2022-10-31T02:46:23.309Z,14.94
2022-10-31T02:47:23.617Z,14.97
2022-10-31T02:48:23.931Z,14.99
2022-10-31T02:49:26.116Z,14.91
2022-10-31T02:50:27.316Z,14.92
2022-10-31T02:51:24.837Z,14.88
2022-10-31T02:52:27.021Z,14.82
2022-10-31T02:53:25.383Z,14.72
2022-10-31T02:54:25.700Z,14.86
2022-10-31T02:55:29.349Z,14.81
2022-10-31T02:56:26.269Z,14.81
2022-10-31T02:57:28.438Z,14.84
2022-10-31T02:58:26.838Z,14.84
2022-10-31T02:59:27.135Z,14.79
2022-10-31T03:00:29.799Z,14.79
2022-10-31T03:01:27.843Z,14.81
2022-10-31T03:02:30.050Z,14.81
2022-10-31T03:03:28.242Z,14.84
2022-10-31T03:04:28.556Z,14.84
2022-10-31T03:05:29.676Z,14.89
2022-10-31T03:06:29.189Z,14.92
2022-10-31T03:07:31.377Z,14.86
2022-10-31T03:08:29.757Z,14.99
2022-10-31T03:09:30.064Z,14.94
2022-10-31T03:10:31.237Z,14.96
2022-10-31T03:11:30.613Z,14.91
2022-10-31T03:12:32.806Z,14.96
2022-10-31T03:13:31.200Z,15.00
2022-10-31T03:14:31.492Z,15.02
2022-10-31T03:15:32.800Z,14.94
2022-10-31T03:16:32.058Z,14.88
2022-10-31T03:17:34.247Z,14.88
2022-10-31T03:18:32.622Z,14.78
2022-10-31T03:19:32.909Z,14.79
2022-10-31T03:20:35.498Z,14.65
2022-10-31T03:21:36.298Z,14.63
2022-10-31T03:22:35.503Z,14.68
2022-10-31T03:23:35.637Z,14.66
2022-10-31T03:24:36.337Z,14.69
2022-10-31T03:25:36.624Z,14.69
2022-10-31T03:26:36.747Z,14.66
2022-10-31T03:27:36.935Z,14.68
2022-10-31T03:28:37.122Z,14.66
2022-10-31T03:29:37.777Z,14.63
2022-10-31T03:30:38.613Z,14.65
2022-10-31T03:31:38.125Z,14.68
2022-10-31T03:32:38.317Z,14.78
2022-10-31T03:33:38.990Z,14.79
2022-10-31T03:34:39.194Z,14.78
2022-10-31T03:35:40.410Z,14.81
2022-10-31T03:36:39.563Z,14.79
2022-10-31T03:37:40.227Z,14.73
2022-10-31T03:38:40.414Z,14.73
2022-10-31T03:39:40.574Z,14.63
2022-10-31T03:40:40.130Z,14.54
2022-10-31T03:41:41.473Z,14.51
2022-10-31T03:42:39.742Z,14.53
2022-10-31T03:43:40.033Z,14.55
2022-10-31T03:44:42.221Z,14.48
2022-10-31T03:45:41.443Z,14.53
2022-10-31T03:46:42.806Z,14.53
2022-10-31T03:47:41.192Z,14.54
2022-10-31T03:48:41.505Z,14.58
2022-10-31T03:49:41.815Z,14.60
2022-10-31T03:50:43.013Z,14.60
2022-10-31T03:51:45.858Z,14.66
2022-10-31T03:52:42.639Z,14.63
2022-10-31T03:53:44.823Z,14.66
2022-10-31T03:54:45.028Z,14.60
2022-10-31T03:55:43.584Z,14.65
2022-10-31T03:56:45.751Z,14.62
2022-10-31T03:57:45.931Z,14.51
2022-10-31T03:58:46.119Z,14.60
2022-10-31T03:59:46.308Z,14.55
2022-10-31T04:00:45.941Z,14.53
2022-10-31T04:01:47.423Z,14.50
2022-10-31T04:02:47.460Z,14.62
2022-10-31T04:03:47.484Z,14.60
2022-10-31T04:04:45.979Z,14.58
2022-10-31T04:05:49.639Z,14.55
2022-10-31T04:06:48.380Z,14.60
2022-10-31T04:07:46.887Z,14.63
2022-10-31T04:08:49.070Z,14.63
2022-10-31T04:09:49.250Z,14.62
2022-10-31T04:10:51.423Z,14.70
2022-10-31T04:11:49.650Z,14.77
2022-10-31T04:12:50.347Z,14.73
2022-10-31T04:13:50.518Z,14.70
2022-10-31T04:14:49.029Z,14.79
2022-10-31T04:15:50.335Z,14.73
2022-10-31T04:16:49.598Z,14.78
2022-10-31T04:17:51.762Z,14.81
2022-10-31T04:18:51.958Z,14.81
2022-10-31T04:19:50.474Z,14.79
2022-10-31T04:20:52.773Z,14.81
2022-10-31T04:21:51.028Z,14.78
2022-10-31T04:22:53.212Z,14.77
2022-10-31T04:23:51.597Z,14.88
2022-10-31T04:24:53.768Z,14.82
2022-10-31T04:25:54.896Z,14.77
2022-10-31T04:26:52.419Z,14.81
2022-10-31T04:27:52.726Z,14.78
2022-10-31T04:28:55.874Z,14.81
2022-10-31T04:29:53.260Z,14.85
2022-10-31T04:30:55.521Z,14.84
2022-10-31T04:31:53.916Z,14.79
2022-10-31T04:32:56.090Z,14.77
2022-10-31T04:33:54.455Z,14.70
2022-10-31T04:34:55.682Z,14.69
2022-10-31T04:35:56.562Z,14.70
2022-10-31T04:36:55.302Z,14.70
2022-10-31T04:37:57.482Z,14.70
2022-10-31T04:38:55.868Z,14.69
2022-10-31T04:39:56.991Z,14.68
2022-10-31T04:40:59.460Z,14.68
2022-10-31T04:41:56.736Z,14.66
2022-10-31T04:42:57.210Z,14.53
2022-10-31T04:43:59.225Z,14.41
2022-10-31T04:44:57.595Z,14.43
2022-10-31T04:45:58.717Z,14.45
2022-10-31T04:46:58.211Z,14.43
2022-10-31T04:47:58.888Z,14.48
2022-10-31T04:49:00.709Z,14.48
2022-10-31T04:49:59.074Z,14.45
2022-10-31T04:51:01.886Z,14.36
2022-10-31T04:51:59.650Z,14.28
2022-10-31T04:53:01.836Z,14.20
2022-10-31T04:54:02.025Z,14.26
2022-10-31T04:55:00.531Z,14.15
2022-10-31T04:56:03.660Z,14.11
2022-10-31T04:57:01.189Z,14.12
2022-10-31T04:58:03.866Z,14.10
2022-10-31T04:59:03.554Z,14.14
2022-10-31T05:00:03.739Z,14.12
2022-10-31T05:01:06.390Z,14.10
2022-10-31T05:02:02.822Z,14.03
2022-10-31T05:03:03.291Z,14.04
2022-10-31T05:04:04.307Z,14.07
2022-10-31T05:05:03.568Z,14.12
2022-10-31T05:06:05.794Z,14.10
2022-10-31T05:07:04.182Z,14.17
2022-10-31T05:08:04.479Z,14.14
2022-10-31T05:09:06.663Z,14.10
2022-10-31T05:10:06.834Z,14.12
2022-10-31T05:11:07.396Z,14.15
2022-10-31T05:12:07.247Z,14.12
2022-10-31T05:13:07.470Z,14.14
2022-10-31T05:14:08.115Z,14.12
2022-10-31T05:15:08.304Z,14.10
2022-10-31T05:16:08.489Z,14.11
2022-10-31T05:17:07.108Z,14.05
2022-10-31T05:18:09.283Z,13.99
2022-10-31T05:19:10.653Z,13.95
2022-10-31T05:20:09.831Z,13.92
2022-10-31T05:21:10.006Z,13.95
2022-10-31T05:22:08.505Z,13.92
2022-10-31T05:23:10.702Z,13.89
2022-10-31T05:24:09.086Z,13.89
2022-10-31T05:25:09.398Z,13.96
2022-10-31T05:26:09.701Z,13.90
2022-10-31T05:27:11.904Z,13.86
2022-10-31T05:28:12.088Z,13.89
2022-10-31T05:29:12.993Z,13.95
2022-10-31T05:30:12.726Z,13.86
2022-10-31T05:31:12.921Z,13.85
2022-10-31T05:32:13.104Z,13.85
2022-10-31T05:33:13.777Z,13.83
2022-10-31T05:34:13.961Z,13.74
2022-10-31T05:35:14.124Z,13.74
2022-10-31T05:36:14.348Z,13.63
2022-10-31T05:37:15.025Z,13.62
2022-10-31T05:38:15.163Z,13.67
2022-10-31T05:39:15.354Z,13.70
2022-10-31T05:40:15.559Z,13.59
2022-10-31T05:41:14.226Z,13.63
2022-10-31T05:42:17.860Z,13.53
2022-10-31T05:43:16.596Z,13.60
2022-10-31T05:44:16.765Z,13.62
2022-10-31T05:45:16.981Z,13.56
2022-10-31T05:46:19.152Z,13.54
2022-10-31T05:47:16.092Z,13.63
2022-10-31T05:48:18.269Z,13.63
2022-10-31T05:49:18.467Z,13.67
2022-10-31T05:50:19.590Z,13.60
2022-10-31T05:51:20.338Z,13.54
2022-10-31T05:52:17.405Z,13.65
2022-10-31T05:53:17.754Z,13.63
2022-10-31T05:54:17.977Z,13.60
2022-10-31T05:55:19.229Z,13.62
2022-10-31T05:56:20.562Z,13.70
2022-10-31T05:57:20.757Z,13.62
2022-10-31T05:58:20.947Z,13.63
2022-10-31T05:59:21.137Z,13.63
2022-10-31T06:00:22.298Z,13.62
2022-10-31T06:01:22.067Z,13.67
2022-10-31T06:02:22.222Z,13.75
2022-10-31T06:03:20.564Z,13.65
2022-10-31T06:04:20.968Z,13.65
2022-10-31T06:05:23.136Z,13.62
2022-10-31T06:06:23.298Z,13.62
2022-10-31T06:07:21.724Z,13.65
2022-10-31T06:08:25.330Z,13.59
2022-10-31T06:09:22.270Z,13.62
2022-10-31T06:10:26.011Z,13.67
2022-10-31T06:11:24.699Z,13.70
2022-10-31T06:12:23.219Z,13.77
2022-10-31T06:13:23.577Z,13.67
2022-10-31T06:14:23.990Z,13.68
2022-10-31T06:15:25.149Z,13.65
2022-10-31T06:16:26.298Z,13.59
2022-10-31T06:17:24.610Z,13.68
2022-10-31T06:18:24.843Z,13.71
2022-10-31T06:19:25.070Z,13.70
2022-10-31T06:20:26.383Z,13.71
2022-10-31T06:21:27.621Z,13.72
2022-10-31T06:22:25.910Z,13.77
2022-10-31T06:23:26.130Z,13.75
2022-10-31T06:24:26.483Z,13.79
2022-10-31T06:25:27.738Z,13.74
2022-10-31T06:26:28.911Z,13.77
2022-10-31T06:27:27.371Z,13.81
2022-10-31T06:28:27.547Z,13.70
2022-10-31T06:29:27.784Z,13.74
2022-10-31T06:30:29.109Z,13.78
2022-10-31T06:31:30.343Z,13.89
2022-10-31T06:32:28.644Z,13.87
2022-10-31T06:33:30.830Z,13.87
2022-10-31T06:34:29.147Z,13.99
2022-10-31T06:35:30.237Z,13.97
2022-10-31T06:36:31.594Z,14.00
2022-10-31T06:37:29.877Z,14.08
2022-10-31T06:38:30.214Z,14.10
2022-10-31T06:39:30.432Z,14.14
2022-10-31T06:40:31.563Z,14.20
2022-10-31T06:41:32.910Z,14.15
2022-10-31T06:42:31.234Z,14.17
2022-10-31T06:43:31.474Z,14.14
2022-10-31T06:44:31.829Z,14.17
2022-10-31T06:45:35.409Z,14.28
2022-10-31T06:46:34.279Z,14.30
2022-10-31T06:47:35.262Z,14.36
2022-10-31T06:48:33.723Z,14.33
2022-10-31T06:49:33.028Z,14.36
2022-10-31T06:50:34.251Z,14.33
2022-10-31T06:51:35.484Z,14.44
2022-10-31T06:52:33.796Z,14.43
2022-10-31T06:53:34.037Z,14.45
2022-10-31T06:54:36.236Z,14.36
2022-10-31T06:55:35.497Z,14.44
2022-10-31T06:56:36.042Z,14.45
2022-10-31T06:57:36.776Z,14.35
2022-10-31T06:58:35.331Z,14.35
2022-10-31T06:59:35.554Z,14.36
2022-10-31T07:00:35.972Z,14.43
2022-10-31T07:01:37.410Z,14.50
2022-10-31T07:02:38.412Z,14.54
2022-10-31T07:03:38.600Z,14.51
2022-10-31T07:04:38.758Z,14.54
2022-10-31T07:05:38.368Z,14.55
2022-10-31T07:06:37.664Z,14.65
2022-10-31T07:07:37.894Z,14.78
2022-10-31T07:08:40.111Z,14.66
2022-10-31T07:09:38.543Z,14.65
2022-10-31T07:10:40.505Z,14.62
2022-10-31T07:11:41.074Z,14.69
2022-10-31T07:12:39.513Z,14.65
2022-10-31T07:13:39.937Z,14.72
2022-10-31T07:14:41.904Z,14.86
2022-10-31T07:15:42.225Z,14.73
2022-10-31T07:16:40.625Z,14.85
2022-10-31T07:17:42.807Z,14.96
2022-10-31T07:18:42.998Z,14.96
2022-10-31T07:19:43.214Z,15.09
2022-10-31T07:20:41.833Z,15.07
2022-10-31T07:21:43.953Z,15.10
2022-10-31T07:22:48.174Z,15.03
2022-10-31T07:23:43.667Z,14.81
2022-10-31T07:24:44.839Z,14.72
2022-10-31T07:25:46.004Z,14.82
2022-10-31T07:26:45.234Z,14.88
2022-10-31T07:27:45.416Z,14.84
2022-10-31T07:28:45.606Z,14.81
2022-10-31T07:29:45.404Z,14.78
2022-10-31T07:30:48.084Z,14.82
2022-10-31T07:31:46.780Z,14.88
2022-10-31T07:32:46.964Z,14.96
2022-10-31T07:33:46.620Z,14.99
2022-10-31T07:34:47.813Z,15.04
2022-10-31T07:35:48.953Z,14.85
2022-10-31T07:36:49.681Z,14.84
2022-10-31T07:37:48.398Z,14.91
2022-10-31T07:38:48.578Z,14.86
2022-10-31T07:39:49.252Z,14.84
2022-10-31T07:40:50.414Z,14.81
2022-10-31T07:41:49.650Z,14.86
2022-10-31T07:42:49.854Z,14.84
2022-10-31T07:43:50.635Z,14.82
2022-10-31T07:44:52.712Z,14.84
2022-10-31T07:45:51.864Z,14.91
2022-10-31T07:46:51.101Z,14.86
2022-10-31T07:47:51.770Z,14.91
2022-10-31T07:48:51.964Z,14.94
2022-10-31T07:49:52.147Z,15.11
2022-10-31T07:50:53.316Z,15.11
2022-10-31T07:51:52.538Z,15.03
2022-10-31T07:52:53.225Z,15.06
2022-10-31T07:53:51.656Z,15.02
2022-10-31T07:54:52.001Z,15.06
2022-10-31T07:55:53.288Z,15.03
2022-10-31T07:56:54.497Z,15.03
2022-10-31T07:57:52.918Z,14.92
2022-10-31T07:58:53.276Z,15.11
2022-10-31T07:59:53.499Z,15.03
2022-10-31T08:00:57.253Z,15.02
2022-10-31T08:01:55.938Z,15.15
2022-10-31T08:02:54.353Z,15.15
2022-10-31T08:03:54.581Z,15.24
2022-10-31T08:04:57.220Z,15.44
2022-10-31T08:05:57.033Z,15.43
2022-10-31T08:06:57.267Z,15.47
2022-10-31T08:07:57.735Z,15.43
2022-10-31T08:08:55.910Z,15.31
2022-10-31T08:09:58.090Z,15.28
2022-10-31T08:10:59.741Z,15.39
2022-10-31T08:11:58.480Z,15.59
2022-10-31T08:12:57.020Z,15.73
2022-10-31T08:14:00.622Z,15.65
2022-10-31T08:14:57.697Z,15.62
2022-10-31T08:16:00.864Z,15.58
2022-10-31T08:17:00.100Z,15.55
2022-10-31T08:18:00.332Z,15.62
2022-10-31T08:18:58.883Z,15.57
2022-10-31T08:19:59.222Z,15.62
2022-10-31T08:21:02.422Z,15.54
2022-10-31T08:22:01.657Z,15.51
2022-10-31T08:23:00.096Z,15.43
2022-10-31T08:24:03.247Z,15.49
2022-10-31T08:25:00.707Z,15.44
2022-10-31T08:26:03.857Z,15.51
2022-10-31T08:27:01.169Z,15.68
2022-10-31T08:28:02.564Z,15.72
2022-10-31T08:29:02.696Z,15.91
2022-10-31T08:30:02.819Z,16.00
2022-10-31T08:31:04.547Z,15.91
2022-10-31T08:32:02.471Z,15.88
2022-10-31T08:33:02.818Z,15.92
2022-10-31T08:34:03.150Z,15.95
2022-10-31T08:35:05.439Z,15.94
2022-10-31T08:36:05.603Z,15.77
2022-10-31T08:37:04.014Z,15.73
2022-10-31T08:38:04.651Z,15.79
2022-10-31T08:39:04.649Z,15.83
2022-10-31T08:40:06.813Z,15.90
2022-10-31T08:41:06.583Z,15.90
2022-10-31T08:42:06.275Z,15.77
2022-10-31T08:43:06.659Z,15.94
2022-10-31T08:44:07.205Z,16.08
2022-10-31T08:45:08.234Z,16.01
2022-10-31T08:46:08.496Z,15.94
2022-10-31T08:47:06.819Z,15.94
2022-10-31T08:48:07.055Z,16.00
2022-10-31T08:49:07.396Z,16.12
2022-10-31T08:50:11.071Z,16.28
2022-10-31T08:51:09.832Z,16.46
2022-10-31T08:52:13.512Z,16.56
2022-10-31T08:53:12.336Z,16.43
2022-10-31T08:54:08.923Z,16.41
2022-10-31T08:55:12.312Z,16.39
2022-10-31T08:56:11.010Z,16.42
2022-10-31T08:57:09.590Z,16.38
2022-10-31T08:58:09.880Z,16.41
2022-10-31T08:59:12.098Z,16.60
2022-10-31T09:00:11.379Z,16.74
2022-10-31T09:01:12.769Z,16.89
2022-10-31T09:02:11.043Z,17.09
2022-10-31T09:03:11.261Z,17.12
2022-10-31T09:04:11.513Z,16.94
2022-10-31T09:05:12.652Z,17.01
2022-10-31T09:06:15.549Z,17.29
2022-10-31T09:07:20.496Z,17.39
2022-10-31T09:08:16.738Z,17.31
2022-10-31T09:09:12.840Z,17.59
2022-10-31T09:10:13.092Z,17.72
2022-10-31T09:11:15.248Z,17.74
2022-10-31T09:12:16.919Z,17.79
2022-10-31T09:13:13.892Z,17.90
2022-10-31T09:14:14.115Z,18.00
2022-10-31T09:15:16.312Z,18.16
2022-10-31T09:16:16.495Z,18.13
2022-10-31T09:17:16.733Z,18.04
2022-10-31T09:18:16.950Z,18.22
2022-10-31T09:19:17.073Z,17.79
2022-10-31T09:20:17.743Z,17.71
2022-10-31T09:21:19.432Z,17.78
2022-10-31T09:22:17.287Z,17.83
2022-10-31T09:23:18.506Z,18.03
2022-10-31T09:24:18.704Z,18.15
2022-10-31T09:25:18.871Z,17.97
2022-10-31T09:26:19.063Z,17.63
2022-10-31T09:27:20.230Z,17.63
2022-10-31T09:28:20.018Z,17.56
2022-10-31T09:29:20.154Z,17.64
2022-10-31T09:30:20.635Z,17.48
2022-10-31T09:31:22.029Z,17.22
2022-10-31T09:32:21.696Z,17.33
2022-10-31T09:33:21.410Z,16.99
2022-10-31T09:34:21.581Z,16.83
2022-10-31T09:35:24.823Z,16.97
2022-10-31T09:36:23.415Z,17.01
2022-10-31T09:37:21.670Z,17.05
2022-10-31T09:38:22.373Z,17.20
2022-10-31T09:39:21.202Z,17.06
2022-10-31T09:40:21.464Z,16.97
2022-10-31T09:41:24.614Z,17.16
2022-10-31T09:42:25.290Z,17.24
2022-10-31T09:43:24.011Z,17.15
2022-10-31T09:44:24.198Z,17.15
2022-10-31T09:45:24.899Z,17.30
2022-10-31T09:46:25.098Z,17.41
2022-10-31T09:47:25.377Z,17.48
2022-10-31T09:48:26.877Z,17.45
2022-10-31T09:49:25.663Z,17.30
2022-10-31T09:50:26.294Z,16.96
2022-10-31T09:51:28.785Z,17.01
2022-10-31T09:52:27.640Z,16.94
2022-10-31T09:53:26.855Z,16.79
2022-10-31T09:54:27.531Z,16.79
2022-10-31T09:55:27.729Z,16.87
2022-10-31T09:56:27.916Z,16.99
2022-10-31T09:57:29.060Z,17.11
2022-10-31T09:58:28.337Z,17.26
2022-10-31T09:59:28.976Z,17.42
2022-10-31T10:00:29.231Z,17.38
2022-10-31T10:01:29.477Z,17.34
2022-10-31T10:02:30.480Z,17.30
2022-10-31T10:03:29.702Z,17.36
2022-10-31T10:04:30.390Z,17.39
2022-10-31T10:05:28.837Z,17.29
2022-10-31T10:06:29.071Z,17.33
2022-10-31T10:07:31.253Z,17.29
2022-10-31T10:08:31.437Z,17.14
2022-10-31T10:09:29.880Z,17.20
2022-10-31T10:10:32.033Z,17.20
2022-10-31T10:11:30.478Z,17.15
2022-10-31T10:12:30.820Z,17.23
2022-10-31T10:13:32.935Z,17.27
2022-10-31T10:14:31.360Z,17.20
2022-10-31T10:15:33.556Z,17.27
2022-10-31T10:16:31.880Z,17.09
2022-10-31T10:17:34.026Z,17.08
2022-10-31T10:18:34.204Z,17.29
2022-10-31T10:19:32.647Z,17.45
2022-10-31T10:20:34.833Z,17.54
2022-10-31T10:21:34.150Z,17.60
2022-10-31T10:22:35.337Z,17.44
2022-10-31T10:23:33.776Z,17.34
2022-10-31T10:24:34.028Z,17.45
2022-10-31T10:25:34.268Z,17.41
2022-10-31T10:26:34.555Z,17.15
2022-10-31T10:27:36.702Z,17.05
2022-10-31T10:28:35.025Z,17.22
2022-10-31T10:29:35.276Z,17.36
2022-10-31T10:30:35.525Z,17.57
2022-10-31T10:31:38.709Z,17.60
2022-10-31T10:32:36.040Z,17.71
2022-10-31T10:33:39.681Z,17.87
2022-10-31T10:34:37.509Z,18.01
2022-10-31T10:35:36.822Z,17.94
2022-10-31T10:36:37.058Z,17.87
2022-10-31T10:37:37.311Z,17.97
2022-10-31T10:38:39.555Z,18.33
2022-10-31T10:39:37.878Z,18.52
2022-10-31T10:40:38.111Z,18.47
2022-10-31T10:41:38.359Z,18.43
2022-10-31T10:42:40.609Z,18.70
2022-10-31T10:43:39.004Z,18.49
2022-10-31T10:44:39.232Z,18.44
2022-10-31T10:45:40.287Z,18.19
2022-10-31T10:46:43.103Z,18.22
2022-10-31T10:47:41.833Z,18.05
2022-10-31T10:48:40.403Z,18.08
2022-10-31T10:49:40.653Z,18.10
2022-10-31T10:50:40.902Z,18.44
2022-10-31T10:51:58.310Z,18.81
2022-10-31T10:52:47.737Z,19.26
2022-10-31T10:53:42.779Z,19.33
2022-10-31T10:54:42.153Z,19.24
2022-10-31T10:55:42.425Z,18.65
2022-10-31T10:56:46.056Z,18.52
2022-10-31T10:57:44.771Z,18.31
2022-10-31T10:58:45.945Z,18.13
2022-10-31T10:59:43.629Z,18.15
2022-10-31T11:00:44.060Z,18.07
2022-10-31T11:01:47.156Z,18.08
2022-10-31T11:02:46.531Z,17.94
2022-10-31T11:03:44.936Z,17.86
2022-10-31T11:04:45.183Z,18.04
2022-10-31T11:05:45.435Z,18.10
2022-10-31T11:06:45.710Z,18.00
2022-10-31T11:07:47.868Z,18.03
2022-10-31T11:08:46.361Z,17.90
2022-10-31T11:09:46.561Z,17.98
2022-10-31T11:10:46.806Z,17.98
2022-10-31T11:11:48.034Z,17.95
2022-10-31T11:12:49.267Z,17.85
2022-10-31T11:13:47.581Z,17.98
2022-10-31T11:14:47.828Z,18.07
2022-10-31T11:15:48.076Z,18.13
2022-10-31T11:16:51.252Z,18.31
2022-10-31T11:17:50.488Z,18.31
2022-10-31T11:18:48.925Z,18.31
2022-10-31T11:19:51.105Z,18.63
2022-10-31T11:20:49.411Z,18.15
2022-10-31T11:21:54.167Z,17.68
2022-10-31T11:22:51.895Z,17.51
2022-10-31T11:23:52.073Z,17.45
2022-10-31T11:24:52.252Z,17.54
2022-10-31T11:25:52.437Z,17.60
2022-10-31T11:26:54.564Z,17.51
2022-10-31T11:27:53.295Z,17.54
2022-10-31T11:28:53.484Z,17.48
2022-10-31T11:29:58.198Z,17.42
2022-10-31T11:30:55.304Z,17.26
2022-10-31T11:31:55.548Z,17.01
2022-10-31T11:32:52.872Z,17.04
2022-10-31T11:33:55.061Z,16.91
2022-10-31T11:34:55.264Z,16.94
2022-10-31T11:35:56.947Z,16.78
2022-10-31T11:36:54.851Z,17.02
2022-10-31T11:37:54.173Z,17.41
2022-10-31T11:38:56.355Z,17.80
2022-10-31T11:39:56.534Z,17.94
2022-10-31T11:40:56.735Z,18.10
2022-10-31T11:41:57.929Z,18.19
2022-10-31T11:42:55.733Z,18.35
2022-10-31T11:43:57.919Z,18.20
2022-10-31T11:44:58.102Z,18.18
2022-10-31T11:45:56.555Z,17.46
2022-10-31T11:47:00.264Z,17.45
2022-10-31T11:47:59.957Z,17.67
2022-10-31T11:48:59.274Z,17.87
2022-10-31T11:49:59.465Z,18.15
2022-10-31T11:50:59.662Z,18.08
2022-10-31T11:51:59.875Z,17.89
2022-10-31T11:53:00.545Z,18.08
2022-10-31T11:54:02.954Z,18.07
2022-10-31T11:55:00.935Z,18.13
2022-10-31T11:56:01.110Z,18.07
2022-10-31T11:57:01.639Z,18.18
2022-10-31T11:58:00.340Z,18.31
2022-10-31T11:59:02.158Z,18.84
2022-10-31T12:00:02.346Z,18.89
2022-10-31T12:01:02.526Z,18.58
2022-10-31T12:02:02.850Z,19.27
2022-10-31T12:03:01.714Z,19.30
2022-10-31T12:04:01.580Z,19.37
2022-10-31T12:05:03.763Z,20.07
2022-10-31T12:06:03.942Z,20.00
2022-10-31T12:07:05.094Z,20.55
2022-10-31T12:08:04.497Z,20.93
2022-10-31T12:09:03.012Z,20.43
2022-10-31T12:10:03.260Z,19.63
2022-10-31T12:11:05.440Z,18.99
2022-10-31T12:12:06.142Z,18.34
2022-10-31T12:13:04.448Z,18.81
2022-10-31T12:14:04.520Z,19.58
2022-10-31T12:15:04.722Z,20.62
2022-10-31T12:16:04.961Z,20.32
2022-10-31T12:17:08.674Z,19.91
2022-10-31T12:18:05.490Z,19.36
2022-10-31T12:19:05.735Z,18.92
2022-10-31T12:20:05.969Z,18.59
2022-10-31T12:21:06.217Z,18.45
2022-10-31T12:22:07.424Z,18.38
2022-10-31T12:23:08.302Z,18.11
2022-10-31T12:24:08.963Z,18.01
2022-10-31T12:25:08.160Z,18.04
2022-10-31T12:26:09.518Z,18.23
2022-10-31T12:27:10.679Z,18.13
2022-10-31T12:28:09.892Z,18.05
2022-10-31T12:29:08.465Z,18.10
2022-10-31T12:30:10.627Z,18.08
2022-10-31T12:31:08.948Z,18.18
2022-10-31T12:32:10.121Z,18.45
2022-10-31T12:33:11.516Z,18.60
2022-10-31T12:34:11.710Z,18.60
2022-10-31T12:35:10.147Z,18.89
2022-10-31T12:36:14.263Z,19.11
2022-10-31T12:37:14.554Z,19.69
2022-10-31T12:38:12.779Z,19.96
2022-10-31T12:39:11.223Z,20.22
2022-10-31T12:40:11.459Z,20.62
2022-10-31T12:41:11.734Z,20.40
2022-10-31T12:42:15.380Z,20.16
2022-10-31T12:43:14.118Z,19.67
2022-10-31T12:44:14.301Z,19.27
2022-10-31T12:45:12.862Z,18.75
2022-10-31T12:46:15.096Z,18.73
2022-10-31T12:47:14.384Z,18.52
2022-10-31T12:48:15.615Z,18.33
2022-10-31T12:49:13.930Z,17.87
2022-10-31T12:50:14.249Z,18.19
2022-10-31T12:51:16.354Z,18.44
2022-10-31T12:52:16.284Z,18.99
2022-10-31T12:53:17.021Z,19.26
2022-10-31T12:54:16.129Z,19.44
2022-10-31T12:55:15.699Z,18.78
2022-10-31T12:56:17.863Z,18.59
2022-10-31T12:57:17.162Z,18.25